createdAt,value
2017-06-21T00:00:01.883Z,15.71
2017-06-21T00:00:20.696Z,15.63
2017-06-21T00:00:39.474Z,15.64
2017-06-21T00:00:58.790Z,15.63
2017-06-21T00:01:18.090Z,15.67
2017-06-21T00:01:36.879Z,15.67
2017-06-21T00:01:56.178Z,15.61
2017-06-21T00:02:15.535Z,15.63
2017-06-21T00:02:35.055Z,15.75
2017-06-21T00:02:54.768Z,15.63
2017-06-21T00:03:14.531Z,15.78
2017-06-21T00:03:33.994Z,15.66
2017-06-21T00:03:54.006Z,15.66
2017-06-21T00:04:12.886Z,15.81
2017-06-21T00:04:32.343Z,15.68
2017-06-21T00:04:51.798Z,15.64
2017-06-21T00:05:11.799Z,15.68
2017-06-21T00:05:30.693Z,15.64
2017-06-21T00:05:50.718Z,15.68
2017-06-21T00:06:10.750Z,15.64
2017-06-21T00:06:30.763Z,15.81
2017-06-21T00:06:50.236Z,15.73
2017-06-21T00:07:09.703Z,15.6
2017-06-21T00:07:29.719Z,15.68
2017-06-21T00:07:49.711Z,15.55
2017-06-21T00:08:09.741Z,15.61
2017-06-21T00:08:29.735Z,15.64
2017-06-21T00:08:49.738Z,15.64
2017-06-21T00:09:09.216Z,15.68
2017-06-21T00:09:29.238Z,15.73
2017-06-21T00:09:48.726Z,15.7
2017-06-21T00:10:08.761Z,15.68
2017-06-21T00:10:28.203Z,15.67
2017-06-21T00:10:48.221Z,15.57
2017-06-21T00:11:08.242Z,15.73
2017-06-21T00:11:28.229Z,15.73
2017-06-21T00:11:48.246Z,15.7
2017-06-21T00:12:08.254Z,15.64
2017-06-21T00:12:28.266Z,15.73
2017-06-21T00:12:48.267Z,15.73
2017-06-21T00:13:08.309Z,15.73
2017-06-21T00:13:27.767Z,15.76
2017-06-21T00:13:47.806Z,15.82
2017-06-21T00:14:07.817Z,15.91
2017-06-21T00:14:27.258Z,15.79
2017-06-21T00:14:46.736Z,15.82
2017-06-21T00:15:06.772Z,15.85
2017-06-21T00:15:26.782Z,15.91
2017-06-21T00:15:46.791Z,15.83
2017-06-21T00:16:06.237Z,15.88
2017-06-21T00:16:26.256Z,15.89
2017-06-21T00:16:46.292Z,15.88
2017-06-21T00:17:05.765Z,15.86
2017-06-21T00:17:25.784Z,15.86
2017-06-21T00:17:45.817Z,15.89
2017-06-21T00:18:05.834Z,15.91
2017-06-21T00:18:25.878Z,15.85
2017-06-21T00:18:45.884Z,15.83
2017-06-21T00:19:05.572Z,15.89
2017-06-21T00:19:24.711Z,15.92
2017-06-21T00:19:44.371Z,16.03
2017-06-21T00:20:03.662Z,15.88
2017-06-21T00:20:22.973Z,15.96
2017-06-21T00:20:42.292Z,16.01
2017-06-21T00:21:01.077Z,15.99
2017-06-21T00:21:20.379Z,15.92
2017-06-21T00:21:39.698Z,15.99
2017-06-21T00:21:59.009Z,15.94
2017-06-21T00:22:17.808Z,15.97
2017-06-21T00:22:37.091Z,15.96
2017-06-21T00:22:56.404Z,15.96
2017-06-21T00:23:15.737Z,15.97
2017-06-21T00:23:35.050Z,16.04
2017-06-21T00:23:54.352Z,15.99
2017-06-21T00:24:13.152Z,15.97
2017-06-21T00:24:32.450Z,16
2017-06-21T00:24:51.753Z,15.96
2017-06-21T00:25:11.045Z,15.94
2017-06-21T00:25:30.347Z,15.96
2017-06-21T00:25:49.666Z,15.96
2017-06-21T00:26:08.485Z,15.94
2017-06-21T00:26:27.799Z,15.97
2017-06-21T00:26:46.052Z,16
2017-06-21T00:27:04.862Z,15.99
2017-06-21T00:27:24.178Z,15.97
2017-06-21T00:27:43.489Z,15.97
2017-06-21T00:28:02.274Z,15.88
2017-06-21T00:28:21.593Z,15.94
2017-06-21T00:28:40.911Z,15.96
2017-06-21T00:29:00.219Z,15.91
2017-06-21T00:29:19.034Z,15.85
2017-06-21T00:29:38.350Z,15.85
2017-06-21T00:29:57.833Z,15.88
2017-06-21T00:30:16.943Z,15.85
2017-06-21T00:30:36.080Z,15.99
2017-06-21T00:30:55.752Z,15.96
2017-06-21T00:31:15.465Z,16
2017-06-21T00:31:34.914Z,15.94
2017-06-21T00:31:53.847Z,15.85
2017-06-21T00:32:13.854Z,15.86
2017-06-21T00:32:33.326Z,15.83
2017-06-21T00:32:53.359Z,15.94
2017-06-21T00:33:13.395Z,15.86
2017-06-21T00:34:01.223Z,15.86
2017-06-21T00:34:21.287Z,15.94
2017-06-21T00:34:41.310Z,15.96
2017-06-21T00:35:01.326Z,15.88
2017-06-21T00:35:20.798Z,15.86
2017-06-21T00:35:40.808Z,15.82
2017-06-21T00:36:00.868Z,15.88
2017-06-21T00:36:21.123Z,15.89
2017-06-21T00:36:41.045Z,15.88
2017-06-21T00:37:00.483Z,15.86
2017-06-21T00:37:19.921Z,15.89
2017-06-21T00:37:39.591Z,15.92
2017-06-21T00:37:59.254Z,15.92
2017-06-21T00:38:18.946Z,15.88
2017-06-21T00:38:38.335Z,15.94
2017-06-21T00:38:57.666Z,15.89
2017-06-21T00:39:16.555Z,15.91
2017-06-21T00:39:35.858Z,15.96
2017-06-21T00:39:54.676Z,15.88
2017-06-21T00:40:13.986Z,15.79
2017-06-21T00:40:33.286Z,15.85
2017-06-21T00:40:52.579Z,15.89
2017-06-21T00:41:11.952Z,15.85
2017-06-21T00:41:31.581Z,15.85
2017-06-21T00:41:50.881Z,15.94
2017-06-21T00:42:10.190Z,15.91
2017-06-21T00:42:29.517Z,15.89
2017-06-21T00:42:48.835Z,15.86
2017-06-21T00:43:10.435Z,15.86
2017-06-21T00:43:29.720Z,15.82
2017-06-21T00:43:48.495Z,15.83
2017-06-21T00:44:07.822Z,15.91
2017-06-21T00:44:26.081Z,15.86
2017-06-21T00:44:45.383Z,15.88
2017-06-21T00:45:04.660Z,15.86
2017-06-21T00:45:23.966Z,15.97
2017-06-21T00:45:43.274Z,16.01
2017-06-21T00:46:02.568Z,15.92
2017-06-21T00:46:21.887Z,16.01
2017-06-21T00:46:41.193Z,16
2017-06-21T00:47:00.486Z,16
2017-06-21T00:47:18.777Z,15.99
2017-06-21T00:47:38.286Z,15.97
2017-06-21T00:47:58.282Z,15.94
2017-06-21T00:48:18.313Z,15.97
2017-06-21T00:48:38.331Z,15.92
2017-06-21T00:48:58.358Z,15.91
2017-06-21T00:49:18.389Z,15.97
2017-06-21T00:49:38.441Z,15.97
2017-06-21T00:49:58.447Z,15.94
2017-06-21T00:50:17.926Z,16.04
2017-06-21T00:50:37.966Z,15.97
2017-06-21T00:50:58.427Z,15.94
2017-06-21T00:51:18.674Z,15.99
2017-06-21T00:51:38.731Z,15.94
2017-06-21T00:51:58.760Z,15.97
2017-06-21T00:52:18.769Z,15.96
2017-06-21T00:52:39.210Z,16
2017-06-21T00:52:59.215Z,15.88
2017-06-21T00:53:19.289Z,15.85
2017-06-21T00:53:39.587Z,16
2017-06-21T00:54:00.025Z,15.94
2017-06-21T00:54:20.060Z,15.96
2017-06-21T00:54:40.101Z,16
2017-06-21T00:55:00.119Z,15.97
2017-06-21T00:55:19.569Z,15.97
2017-06-21T00:55:39.011Z,15.97
2017-06-21T00:56:00.383Z,15.99
2017-06-21T00:56:20.385Z,16.01
2017-06-21T00:56:40.410Z,16.01
2017-06-21T00:56:59.839Z,15.96
2017-06-21T00:57:19.879Z,16
2017-06-21T00:57:39.879Z,16.01
2017-06-21T00:57:59.899Z,15.97
2017-06-21T00:58:19.893Z,15.97
2017-06-21T00:58:39.906Z,15.97
2017-06-21T00:58:59.372Z,16.03
2017-06-21T00:59:19.391Z,15.96
2017-06-21T00:59:39.396Z,15.94
2017-06-21T00:59:58.842Z,15.99
2017-06-21T01:00:18.858Z,15.91
2017-06-21T01:00:38.866Z,15.89
2017-06-21T01:00:58.878Z,15.85
2017-06-21T01:01:18.916Z,15.96
2017-06-21T01:01:38.940Z,15.89
2017-06-21T01:01:58.963Z,15.99
2017-06-21T01:02:18.981Z,15.94
2017-06-21T01:02:38.982Z,15.96
2017-06-21T01:02:58.993Z,16
2017-06-21T01:03:19.001Z,15.96
2017-06-21T01:03:39.049Z,15.99
2017-06-21T01:03:59.077Z,15.96
2017-06-21T01:04:19.107Z,15.99
2017-06-21T01:04:39.138Z,16
2017-06-21T01:04:58.622Z,15.94
2017-06-21T01:05:18.641Z,16
2017-06-21T01:05:38.089Z,16
2017-06-21T01:05:58.104Z,15.94
2017-06-21T01:06:18.115Z,16.03
2017-06-21T01:06:38.136Z,15.97
2017-06-21T01:06:58.157Z,16.06
2017-06-21T01:07:18.193Z,16.07
2017-06-21T01:07:38.207Z,15.96
2017-06-21T01:07:58.238Z,16.03
2017-06-21T01:08:17.723Z,15.97
2017-06-21T01:08:37.177Z,16.03
2017-06-21T01:08:57.275Z,15.97
2017-06-21T01:09:17.272Z,16.07
2017-06-21T01:09:37.273Z,16.04
2017-06-21T01:09:57.280Z,15.97
2017-06-21T01:10:16.750Z,16.07
2017-06-21T01:10:36.781Z,16.03
2017-06-21T01:10:56.805Z,16.12
2017-06-21T01:11:16.847Z,16.14
2017-06-21T01:11:36.305Z,16.15
2017-06-21T01:11:56.339Z,16
2017-06-21T01:12:16.377Z,16.03
2017-06-21T01:12:35.831Z,16.03
2017-06-21T01:12:54.707Z,16.03
2017-06-21T01:13:14.709Z,16.06
2017-06-21T01:13:34.715Z,16.16
2017-06-21T01:13:54.746Z,16.14
2017-06-21T01:14:14.776Z,16.06
2017-06-21T01:14:34.221Z,16.2
2017-06-21T01:14:54.212Z,16.12
2017-06-21T01:15:13.645Z,16.15
2017-06-21T01:15:33.664Z,16.07
2017-06-21T01:15:53.662Z,16.08
2017-06-21T01:16:13.671Z,16.12
2017-06-21T01:16:33.692Z,15.97
2017-06-21T01:16:53.773Z,15.97
2017-06-21T01:17:13.855Z,16.07
2017-06-21T01:17:33.950Z,15.97
2017-06-21T01:17:54.064Z,16.03
2017-06-21T01:18:14.107Z,15.97
2017-06-21T01:18:33.564Z,16.03
2017-06-21T01:18:53.598Z,16.01
2017-06-21T01:19:13.848Z,16.06
2017-06-21T01:19:33.845Z,16.03
2017-06-21T01:19:53.329Z,16.07
2017-06-21T01:20:12.796Z,15.99
2017-06-21T01:20:32.055Z,16
2017-06-21T01:20:51.847Z,16.04
2017-06-21T01:21:11.489Z,16
2017-06-21T01:21:30.641Z,15.97
2017-06-21T01:21:50.319Z,16
2017-06-21T01:22:14.147Z,16.01
2017-06-21T01:22:33.331Z,15.96
2017-06-21T01:22:52.971Z,15.99
2017-06-21T01:23:12.102Z,16.04
2017-06-21T01:23:31.694Z,16.01
2017-06-21T01:23:50.470Z,16.07
2017-06-21T01:24:09.815Z,15.97
2017-06-21T01:24:29.625Z,16
2017-06-21T01:24:48.432Z,16.03
2017-06-21T01:25:07.205Z,15.99
2017-06-21T01:25:26.530Z,15.96
2017-06-21T01:25:45.862Z,15.94
2017-06-21T01:26:05.215Z,15.99
2017-06-21T01:26:24.531Z,16.01
2017-06-21T01:26:42.798Z,16.04
2017-06-21T01:27:02.112Z,16.03
2017-06-21T01:27:20.897Z,16.03
2017-06-21T01:27:40.234Z,16.04
2017-06-21T01:27:59.031Z,15.97
2017-06-21T01:28:18.344Z,15.92
2017-06-21T01:28:37.173Z,16.01
2017-06-21T01:28:56.509Z,15.97
2017-06-21T01:29:15.911Z,15.99
2017-06-21T01:29:35.279Z,16.03
2017-06-21T01:29:54.072Z,15.97
2017-06-21T01:30:13.368Z,15.97
2017-06-21T01:30:32.670Z,16
2017-06-21T01:30:51.455Z,16.07
2017-06-21T01:31:10.231Z,16.1
2017-06-21T01:31:29.632Z,16.12
2017-06-21T01:31:48.485Z,16.03
2017-06-21T01:32:07.796Z,16.04
2017-06-21T01:32:27.099Z,16.1
2017-06-21T01:32:45.901Z,16
2017-06-21T01:33:04.689Z,15.96
2017-06-21T01:33:24.082Z,15.99
2017-06-21T01:33:42.850Z,15.96
2017-06-21T01:34:01.724Z,16.08
2017-06-21T01:34:20.525Z,16.12
2017-06-21T01:34:40.037Z,16.07
2017-06-21T01:34:59.696Z,16.14
2017-06-21T01:35:19.529Z,16.27
2017-06-21T01:35:39.532Z,16.22
2017-06-21T01:35:59.573Z,16.2
2017-06-21T01:36:19.634Z,16.23
2017-06-21T01:36:39.654Z,16.2
2017-06-21T01:36:59.104Z,16.16
2017-06-21T01:37:19.109Z,16.15
2017-06-21T01:37:39.148Z,16.25
2017-06-21T01:37:59.420Z,16.18
2017-06-21T01:38:19.922Z,16.18
2017-06-21T01:38:39.922Z,16.14
2017-06-21T01:38:58.817Z,16.14
2017-06-21T01:39:19.387Z,16.18
2017-06-21T01:39:39.386Z,16.18
2017-06-21T01:39:59.513Z,16.1
2017-06-21T01:40:19.505Z,16.12
2017-06-21T01:40:39.513Z,16.12
2017-06-21T01:40:59.508Z,16.15
2017-06-21T01:41:18.948Z,16.04
2017-06-21T01:41:38.978Z,16.2
2017-06-21T01:41:58.445Z,16.14
2017-06-21T01:42:18.885Z,16.26
2017-06-21T01:42:38.326Z,16.25
2017-06-21T01:42:58.393Z,16.3
2017-06-21T01:43:18.396Z,16.22
2017-06-21T01:43:38.426Z,16.22
2017-06-21T01:43:57.865Z,16.27
2017-06-21T01:44:17.952Z,16.16
2017-06-21T01:44:37.963Z,16.26
2017-06-21T01:44:58.006Z,16.26
2017-06-21T01:45:18.026Z,16.22
2017-06-21T01:45:38.039Z,16.22
2017-06-21T01:45:58.059Z,16.2
2017-06-21T01:46:18.090Z,16.25
2017-06-21T01:46:38.095Z,16.27
2017-06-21T01:46:58.099Z,16.34
2017-06-21T01:47:31.390Z,16.4
2017-06-21T01:47:51.902Z,16.33
2017-06-21T01:48:11.949Z,16.4
2017-06-21T01:48:31.953Z,16.26
2017-06-21T01:48:51.968Z,16.22
2017-06-21T01:49:11.979Z,16.27
2017-06-21T01:49:32.007Z,16.23
2017-06-21T01:49:52.038Z,16.25
2017-06-21T01:50:12.039Z,16.25
2017-06-21T01:50:31.491Z,16.25
2017-06-21T01:50:51.554Z,16.25
2017-06-21T01:51:11.565Z,16.26
2017-06-21T01:51:31.576Z,16.22
2017-06-21T01:51:51.586Z,16.3
2017-06-21T01:52:11.590Z,16.25
2017-06-21T01:52:31.646Z,16.18
2017-06-21T01:52:51.134Z,16.23
2017-06-21T01:53:11.167Z,16.29
2017-06-21T01:53:30.758Z,16.29
2017-06-21T01:53:50.186Z,16.34
2017-06-21T01:54:09.473Z,16.35
2017-06-21T01:54:28.771Z,16.34
2017-06-21T01:54:47.596Z,16.37
2017-06-21T01:55:06.908Z,16.37
2017-06-21T01:55:26.260Z,16.33
2017-06-21T01:55:45.604Z,16.29
2017-06-21T01:56:04.404Z,16.37
2017-06-21T01:56:25.340Z,16.4
2017-06-21T01:56:44.703Z,16.38
2017-06-21T01:57:04.167Z,16.34
2017-06-21T01:57:23.486Z,16.41
2017-06-21T01:57:42.783Z,16.34
2017-06-21T01:58:02.067Z,16.37
2017-06-21T01:58:20.865Z,16.29
2017-06-21T01:58:39.679Z,16.29
2017-06-21T01:58:58.990Z,16.33
2017-06-21T01:59:17.775Z,16.26
2017-06-21T01:59:37.163Z,16.23
2017-06-21T01:59:56.455Z,16.3
2017-06-21T02:00:15.271Z,16.23
2017-06-21T02:00:34.580Z,16.26
2017-06-21T02:00:53.886Z,16.23
2017-06-21T02:01:12.685Z,16.22
2017-06-21T02:01:31.471Z,16.23
2017-06-21T02:01:50.767Z,16.25
2017-06-21T02:02:10.071Z,16.18
2017-06-21T02:02:29.380Z,16.18
2017-06-21T02:02:48.711Z,16.26
2017-06-21T02:03:22.201Z,16.22
2017-06-21T02:03:41.514Z,16.27
2017-06-21T02:04:00.811Z,16.26
2017-06-21T02:04:19.635Z,16.27
2017-06-21T02:04:38.431Z,16.34
2017-06-21T02:04:57.196Z,16.29
2017-06-21T02:05:16.515Z,16.3
2017-06-21T02:05:35.822Z,16.23
2017-06-21T02:05:54.617Z,16.22
2017-06-21T02:06:13.893Z,16.22
2017-06-21T02:06:32.694Z,16.27
2017-06-21T02:06:51.524Z,16.22
2017-06-21T02:07:11.388Z,16.33
2017-06-21T02:07:30.829Z,16.29
2017-06-21T02:07:50.832Z,16.29
2017-06-21T02:08:10.278Z,16.29
2017-06-21T02:08:30.278Z,16.23
2017-06-21T02:08:49.706Z,16.25
2017-06-21T02:09:09.717Z,16.23
2017-06-21T02:09:28.343Z,16.2
2017-06-21T02:09:48.011Z,16.2
2017-06-21T02:10:07.650Z,16.2
2017-06-21T02:10:27.289Z,16.25
2017-06-21T02:10:46.956Z,16.29
2017-06-21T02:11:06.629Z,16.23
2017-06-21T02:11:25.750Z,16.25
2017-06-21T02:11:44.333Z,16.18
2017-06-21T02:12:04.008Z,16.29
2017-06-21T02:12:23.107Z,16.22
2017-06-21T02:12:42.225Z,16.22
2017-06-21T02:13:01.358Z,16.29
2017-06-21T02:13:21.033Z,16.3
2017-06-21T02:13:40.686Z,16.23
2017-06-21T02:14:00.344Z,16.27
2017-06-21T02:14:19.456Z,16.26
2017-06-21T02:14:39.127Z,16.26
2017-06-21T02:14:58.802Z,16.34
2017-06-21T02:15:18.458Z,16.27
2017-06-21T02:15:38.150Z,16.25
2017-06-21T02:15:57.283Z,16.25
2017-06-21T02:16:16.956Z,16.22
2017-06-21T02:16:35.543Z,16.23
2017-06-21T02:16:55.208Z,16.14
2017-06-21T02:17:14.875Z,16.26
2017-06-21T02:17:33.447Z,16.22
2017-06-21T02:17:52.022Z,16.14
2017-06-21T02:18:10.976Z,16.22
2017-06-21T02:18:29.775Z,16.22
2017-06-21T02:18:48.569Z,16.07
2017-06-21T02:19:07.854Z,16.18
2017-06-21T02:19:27.508Z,16.2
2017-06-21T02:19:47.197Z,16.22
2017-06-21T02:20:05.928Z,16.18
2017-06-21T02:20:25.401Z,16.16
2017-06-21T02:20:44.873Z,16.2
2017-06-21T02:21:04.871Z,16.22
2017-06-21T02:21:24.891Z,16.2
2017-06-21T02:21:44.605Z,16.23
2017-06-21T02:22:04.295Z,16.01
2017-06-21T02:22:23.963Z,16.1
2017-06-21T02:22:43.618Z,16.15
2017-06-21T02:23:02.766Z,16.18
2017-06-21T02:23:22.471Z,16.18
2017-06-21T02:23:41.592Z,16.14
2017-06-21T02:24:01.258Z,16.15
2017-06-21T02:24:20.915Z,16.06
2017-06-21T02:24:40.577Z,16.04
2017-06-21T02:25:00.239Z,15.97
2017-06-21T02:25:19.876Z,16
2017-06-21T02:25:39.009Z,15.96
2017-06-21T02:25:58.148Z,16.01
2017-06-21T02:26:17.784Z,16
2017-06-21T02:26:37.435Z,15.94
2017-06-21T02:26:57.092Z,16
2017-06-21T02:27:16.733Z,15.97
2017-06-21T02:27:36.408Z,16.03
2017-06-21T02:27:56.049Z,15.99
2017-06-21T02:28:15.202Z,16.01
2017-06-21T02:28:34.853Z,15.99
2017-06-21T02:28:54.522Z,15.99
2017-06-21T02:29:14.196Z,16.04
2017-06-21T02:29:33.865Z,16.01
2017-06-21T02:29:53.540Z,16.01
2017-06-21T02:30:13.179Z,16.01
2017-06-21T02:30:32.824Z,15.99
2017-06-21T02:30:51.929Z,16.1
2017-06-21T02:31:11.579Z,16.06
2017-06-21T02:31:31.218Z,16.04
2017-06-21T02:31:50.889Z,16.07
2017-06-21T02:32:10.561Z,16.07
2017-06-21T02:32:30.026Z,15.97
2017-06-21T02:32:49.350Z,16
2017-06-21T02:33:08.653Z,15.97
2017-06-21T02:33:27.958Z,15.99
2017-06-21T02:33:47.288Z,16.01
2017-06-21T02:34:06.602Z,15.99
2017-06-21T02:34:25.370Z,16
2017-06-21T02:34:44.671Z,16
2017-06-21T02:35:03.461Z,16.01
2017-06-21T02:35:22.776Z,15.85
2017-06-21T02:35:42.107Z,16.01
2017-06-21T02:36:01.417Z,15.94
2017-06-21T02:36:20.197Z,15.94
2017-06-21T02:36:39.499Z,15.99
2017-06-21T02:36:58.803Z,15.97
2017-06-21T02:37:18.126Z,15.97
2017-06-21T02:37:37.832Z,16
2017-06-21T02:37:57.498Z,16.03
2017-06-21T02:38:17.229Z,15.94
2017-06-21T02:38:36.930Z,15.94
2017-06-21T02:38:56.622Z,15.97
2017-06-21T02:39:16.334Z,16.03
2017-06-21T02:39:36.032Z,15.99
2017-06-21T02:39:54.598Z,15.94
2017-06-21T02:40:13.723Z,15.97
2017-06-21T02:40:32.854Z,15.91
2017-06-21T02:40:52.497Z,15.94
2017-06-21T02:41:12.186Z,15.94
2017-06-21T02:41:31.870Z,15.88
2017-06-21T02:41:51.529Z,15.97
2017-06-21T02:42:10.698Z,15.88
2017-06-21T02:42:30.370Z,15.88
2017-06-21T02:42:48.981Z,15.86
2017-06-21T02:43:08.680Z,15.89
2017-06-21T02:43:28.388Z,15.88
2017-06-21T02:43:48.073Z,15.89
2017-06-21T02:44:07.779Z,15.86
2017-06-21T02:44:27.459Z,15.92
2017-06-21T02:44:47.155Z,15.96
2017-06-21T02:45:06.789Z,15.91
2017-06-21T02:45:26.261Z,15.96
2017-06-21T02:45:45.571Z,15.94
2017-06-21T02:46:04.909Z,15.88
2017-06-21T02:46:23.708Z,15.92
2017-06-21T02:46:43.031Z,16.01
2017-06-21T02:47:02.357Z,16.03
2017-06-21T02:47:21.138Z,15.97
2017-06-21T02:47:40.443Z,15.96
2017-06-21T02:47:59.771Z,15.97
2017-06-21T02:48:18.576Z,16
2017-06-21T02:48:37.898Z,16.01
2017-06-21T02:48:57.236Z,16.03
2017-06-21T02:49:16.594Z,16.01
2017-06-21T02:49:34.848Z,15.96
2017-06-21T02:49:54.154Z,16.03
2017-06-21T02:50:13.471Z,16.06
2017-06-21T02:50:32.296Z,15.99
2017-06-21T02:50:51.617Z,16.07
2017-06-21T02:51:10.915Z,16.16
2017-06-21T02:51:29.707Z,16.06
2017-06-21T02:51:48.505Z,16.14
2017-06-21T02:52:07.817Z,16.1
2017-06-21T02:52:27.140Z,16.07
2017-06-21T02:52:46.441Z,16.12
2017-06-21T02:53:05.746Z,16.15
2017-06-21T02:53:25.062Z,16.12
2017-06-21T02:53:44.350Z,16.15
2017-06-21T02:54:03.676Z,16.18
2017-06-21T02:54:22.973Z,16.22
2017-06-21T02:54:42.319Z,16.16
2017-06-21T02:55:01.641Z,16.25
2017-06-21T02:55:20.949Z,16.16
2017-06-21T02:55:40.339Z,16.16
2017-06-21T02:55:59.645Z,16.3
2017-06-21T02:56:18.450Z,16.27
2017-06-21T02:56:37.747Z,16.29
2017-06-21T02:56:56.535Z,16.27
2017-06-21T02:57:15.825Z,16.29
2017-06-21T02:57:35.157Z,16.18
2017-06-21T02:57:54.484Z,16.29
2017-06-21T02:58:12.757Z,16.18
2017-06-21T02:58:31.559Z,16.2
2017-06-21T02:58:50.993Z,16.2
2017-06-21T02:59:10.321Z,16.26
2017-06-21T02:59:29.625Z,16.25
2017-06-21T02:59:48.533Z,16.15
2017-06-21T03:00:08.217Z,16.18
2017-06-21T03:00:27.902Z,16.18
2017-06-21T03:00:47.618Z,16.12
2017-06-21T03:01:07.273Z,16.1
2017-06-21T03:01:26.929Z,16.18
2017-06-21T03:01:46.628Z,16.22
2017-06-21T03:02:06.343Z,16.14
2017-06-21T03:02:26.023Z,16.03
2017-06-21T03:02:45.728Z,16.18
2017-06-21T03:03:04.890Z,16.14
2017-06-21T03:03:24.605Z,16
2017-06-21T03:03:44.259Z,15.96
2017-06-21T03:04:03.902Z,16.03
2017-06-21T03:04:22.999Z,15.97
2017-06-21T03:04:42.387Z,15.94
2017-06-21T03:05:01.681Z,15.96
2017-06-21T03:05:21.000Z,16.14
2017-06-21T03:05:40.322Z,16.1
2017-06-21T03:05:59.653Z,16.2
2017-06-21T03:06:18.968Z,16.14
2017-06-21T03:06:38.270Z,16.03
2017-06-21T03:06:57.575Z,16.06
2017-06-21T03:07:16.867Z,15.99
2017-06-21T03:07:36.352Z,16.1
2017-06-21T03:07:56.054Z,15.96
2017-06-21T03:08:15.689Z,16
2017-06-21T03:08:35.709Z,15.97
2017-06-21T03:08:55.716Z,16.06
2017-06-21T03:09:15.736Z,16.04
2017-06-21T03:09:35.742Z,16.03
2017-06-21T03:09:55.199Z,16.12
2017-06-21T03:10:15.205Z,16.16
2017-06-21T03:10:34.668Z,16.22
2017-06-21T03:10:54.677Z,16.2
2017-06-21T03:11:14.677Z,16.18
2017-06-21T03:11:33.570Z,16.22
2017-06-21T03:11:53.640Z,16.25
2017-06-21T03:12:13.087Z,16.2
2017-06-21T03:12:32.528Z,16.1
2017-06-21T03:12:51.983Z,16.12
2017-06-21T03:13:12.001Z,16.15
2017-06-21T03:13:31.461Z,16.14
2017-06-21T03:13:51.470Z,16.06
2017-06-21T03:14:11.491Z,16.15
2017-06-21T03:14:31.504Z,16.12
2017-06-21T03:14:50.976Z,16.15
2017-06-21T03:15:10.983Z,16.14
2017-06-21T03:15:30.436Z,16.18
2017-06-21T03:15:49.886Z,16.14
2017-06-21T03:16:09.984Z,16.06
2017-06-21T03:16:29.987Z,16.14
2017-06-21T03:16:49.447Z,16.14
2017-06-21T03:17:09.486Z,16.1
2017-06-21T03:17:28.919Z,16.06
2017-06-21T03:17:48.378Z,16.08
2017-06-21T03:18:08.386Z,16.25
2017-06-21T03:18:28.385Z,16.03
2017-06-21T03:18:47.844Z,16.03
2017-06-21T03:19:07.864Z,16.18
2017-06-21T03:19:27.882Z,16.04
2017-06-21T03:19:47.361Z,16.22
2017-06-21T03:20:06.832Z,16.16
2017-06-21T03:20:26.279Z,16.25
2017-06-21T03:20:45.733Z,16.2
2017-06-21T03:21:05.185Z,16.22
2017-06-21T03:21:25.184Z,16.22
2017-06-21T03:21:44.646Z,16.22
2017-06-21T03:22:04.664Z,16.23
2017-06-21T03:22:24.700Z,16.22
2017-06-21T03:22:44.757Z,16.22
2017-06-21T03:23:03.663Z,16.14
2017-06-21T03:23:23.694Z,16.16
2017-06-21T03:23:43.764Z,16.22
2017-06-21T03:24:03.770Z,16.2
2017-06-21T03:24:22.661Z,16.2
2017-06-21T03:24:42.002Z,16.15
2017-06-21T03:25:01.330Z,16.08
2017-06-21T03:25:19.590Z,16.2
2017-06-21T03:25:38.883Z,16.15
2017-06-21T03:25:58.194Z,16.14
2017-06-21T03:26:17.493Z,16.18
2017-06-21T03:26:36.773Z,16.22
2017-06-21T03:26:55.576Z,16.22
2017-06-21T03:27:14.359Z,16.22
2017-06-21T03:27:33.928Z,16.3
2017-06-21T03:27:53.283Z,16.14
2017-06-21T03:28:12.598Z,16.08
2017-06-21T03:28:31.903Z,16.12
2017-06-21T03:28:50.672Z,16.14
2017-06-21T03:29:10.040Z,16.12
2017-06-21T03:29:29.682Z,16.16
2017-06-21T03:29:49.349Z,16.08
2017-06-21T03:30:09.004Z,16.22
2017-06-21T03:30:28.689Z,16.26
2017-06-21T03:30:47.283Z,16.26
2017-06-21T03:31:06.949Z,16.15
2017-06-21T03:31:26.792Z,16.26
2017-06-21T03:31:46.844Z,16.25
2017-06-21T03:32:06.895Z,16.26
2017-06-21T03:32:26.931Z,16.18
2017-06-21T03:32:46.390Z,16.16
2017-06-21T03:33:06.419Z,16.29
2017-06-21T03:33:25.873Z,16.22
2017-06-21T03:33:45.900Z,16.26
2017-06-21T03:34:05.351Z,16.27
2017-06-21T03:34:25.403Z,16.27
2017-06-21T03:34:45.453Z,16.27
2017-06-21T03:35:05.457Z,16.3
2017-06-21T03:35:25.485Z,16.23
2017-06-21T03:35:44.948Z,16.26
2017-06-21T03:36:05.005Z,16.25
2017-06-21T03:36:24.458Z,16.16
2017-06-21T03:36:44.498Z,16.22
2017-06-21T03:37:04.519Z,16.08
2017-06-21T03:37:24.557Z,16.16
2017-06-21T03:37:44.650Z,16.16
2017-06-21T03:38:04.652Z,16.12
2017-06-21T03:38:24.682Z,16.08
2017-06-21T03:38:44.131Z,16.1
2017-06-21T03:39:03.566Z,16.06
2017-06-21T03:39:23.566Z,16.14
2017-06-21T03:39:43.577Z,16.1
2017-06-21T03:40:03.624Z,16.07
2017-06-21T03:40:23.663Z,16.06
2017-06-21T03:40:43.668Z,16.08
2017-06-21T03:41:03.669Z,16.07
2017-06-21T03:41:23.131Z,16.16
2017-06-21T03:41:43.142Z,16.2
2017-06-21T03:42:03.170Z,16.15
2017-06-21T03:42:23.199Z,16.23
2017-06-21T03:42:43.102Z,16.18
2017-06-21T03:43:01.953Z,16.22
2017-06-21T03:43:21.266Z,16.14
2017-06-21T03:43:40.580Z,16.18
2017-06-21T03:43:59.897Z,16.16
2017-06-21T03:44:18.685Z,16.07
2017-06-21T03:44:37.958Z,16.12
2017-06-21T03:44:57.255Z,16.14
2017-06-21T03:45:16.051Z,16.08
2017-06-21T03:45:34.852Z,16.15
2017-06-21T03:45:54.161Z,16.16
2017-06-21T03:46:13.476Z,16.12
2017-06-21T03:46:32.285Z,16.23
2017-06-21T03:46:51.578Z,16.23
2017-06-21T03:47:10.886Z,16.23
2017-06-21T03:47:29.702Z,16.22
2017-06-21T03:47:48.527Z,16.18
2017-06-21T03:48:07.822Z,16.27
2017-06-21T03:48:27.162Z,16.23
2017-06-21T03:48:46.444Z,16.23
2017-06-21T03:49:05.254Z,16.22
2017-06-21T03:49:24.532Z,16.25
2017-06-21T03:49:43.343Z,16.25
2017-06-21T03:50:02.655Z,16.26
2017-06-21T03:50:21.442Z,16.25
2017-06-21T03:50:40.236Z,16.3
2017-06-21T03:50:59.537Z,16.26
2017-06-21T03:51:18.868Z,16.26
2017-06-21T03:51:38.171Z,16.26
2017-06-21T03:51:57.502Z,16.3
2017-06-21T03:52:16.281Z,16.22
2017-06-21T03:52:35.579Z,16.22
2017-06-21T03:52:54.886Z,16.29
2017-06-21T03:53:13.718Z,16.3
2017-06-21T03:53:33.037Z,16.3
2017-06-21T03:53:51.854Z,16.29
2017-06-21T03:54:11.471Z,16.29
2017-06-21T03:54:31.137Z,16.29
2017-06-21T03:54:50.789Z,16.37
2017-06-21T03:55:10.463Z,16.34
2017-06-21T03:55:30.141Z,16.37
2017-06-21T03:55:49.810Z,16.41
2017-06-21T03:56:09.490Z,16.4
2017-06-21T03:56:29.170Z,16.41
2017-06-21T03:56:48.852Z,16.4
2017-06-21T03:57:08.533Z,16.35
2017-06-21T03:57:28.182Z,16.35
2017-06-21T03:57:47.297Z,16.38
2017-06-21T03:58:06.971Z,16.38
2017-06-21T03:58:26.628Z,16.4
2017-06-21T03:58:46.393Z,16.48
2017-06-21T03:59:05.500Z,16.44
2017-06-21T03:59:24.606Z,16.53
2017-06-21T03:59:44.272Z,16.53
2017-06-21T04:00:03.379Z,16.52
2017-06-21T04:00:22.490Z,16.55
2017-06-21T04:00:43.067Z,16.52
2017-06-21T04:01:02.721Z,16.48
2017-06-21T04:01:22.378Z,16.48
2017-06-21T04:01:42.041Z,16.5
2017-06-21T04:02:01.266Z,16.4
2017-06-21T04:02:21.290Z,16.41
2017-06-21T04:02:41.302Z,16.47
2017-06-21T04:03:01.324Z,16.47
2017-06-21T04:03:21.344Z,16.47
2017-06-21T04:03:41.397Z,16.5
2017-06-21T04:04:00.849Z,16.48
2017-06-21T04:04:20.850Z,16.47
2017-06-21T04:04:40.145Z,16.45
2017-06-21T04:04:59.278Z,16.55
2017-06-21T04:05:18.423Z,16.53
2017-06-21T04:05:37.018Z,16.53
2017-06-21T04:05:56.145Z,16.53
2017-06-21T04:06:15.854Z,16.48
2017-06-21T04:06:34.993Z,16.53
2017-06-21T04:06:54.639Z,16.47
2017-06-21T04:07:14.320Z,16.48
2017-06-21T04:07:33.964Z,16.52
2017-06-21T04:07:53.093Z,16.55
2017-06-21T04:08:12.743Z,16.53
2017-06-21T04:08:32.423Z,16.56
2017-06-21T04:08:52.119Z,16.6
2017-06-21T04:09:11.257Z,16.56
2017-06-21T04:09:30.363Z,16.48
2017-06-21T04:09:49.458Z,16.6
2017-06-21T04:10:08.576Z,16.6
2017-06-21T04:10:28.221Z,16.5
2017-06-21T04:10:46.796Z,16.6
2017-06-21T04:11:06.459Z,16.56
2017-06-21T04:11:26.141Z,16.6
2017-06-21T04:11:45.805Z,16.52
2017-06-21T04:12:05.450Z,16.52
2017-06-21T04:12:24.570Z,16.62
2017-06-21T04:12:43.145Z,16.62
2017-06-21T04:13:03.106Z,16.6
2017-06-21T04:13:23.110Z,16.53
2017-06-21T04:13:43.224Z,16.53
2017-06-21T04:14:03.216Z,16.52